Time;durP1;ratioP1;P1;durP2;ratioP2;P2;SDS_P1;SDS_P2;PMS_P1;PMS_P2;Temp;Humidity;BMP_temperature;BMP_pressure;BME280_temperature;BME280_humidity;BME280_pressure;Samples;Min_cycle;Max_cycle;Signal;HPM_P1;HPM_P2
2021/01/02 00:00:38;;;;;;;16.42;7.43;;;;;;;3.02;85.92;99503.94;3481155;28;20052;-46
2021/01/02 00:02:32;;;;;;;15.68;6.95;;;;;;;3.01;85.97;99502.19;3482139;28;20076;-45
2021/01/02 00:04:31;;;;;;;8.85;4.22;;;;;;;3.01;85.87;99507.31;3479891;28;20414;-46
2021/01/02 00:06:20;;;;;;;13.60;6.50;;;;;;;3.01;85.28;99507.31;3479965;28;20049;-46
2021/01/02 00:08:19;;;;;;;16.17;6.68;;;;;;;2.99;85.21;99509.81;3483222;28;20048;-46
2021/01/02 00:10:04;;;;;;;15.18;7.03;;;;;;;2.99;85.33;99514.06;3478753;28;20068;-44
2021/01/02 00:12:02;;;;;;;10.18;4.93;;;;;;;2.99;85.07;99509.81;3480120;28;20049;-45
2021/01/02 00:14:10;;;;;;;12.00;5.38;;;;;;;2.97;85.23;99521.69;3482621;28;20528;-47
2021/01/02 00:16:05;;;;;;;15.05;6.40;;;;;;;2.94;85.17;99524.16;3482447;28;20099;-47
2021/01/02 00:18:11;;;;;;;12.90;6.50;;;;;;;2.93;84.82;99524.06;3481096;28;20102;-46
2021/01/02 00:20:07;;;;;;;12.75;5.95;;;;;;;2.93;84.91;99531.75;3479884;28;20045;-47
2021/01/02 00:22:00;;;;;;;15.45;6.72;;;;;;;2.91;84.97;99531.69;3483320;28;20049;-46
2021/01/02 00:24:13;;;;;;;9.80;4.57;;;;;;;2.89;85.03;99535.88;3480825;28;20455;-46
2021/01/02 00:26:02;;;;;;;14.27;4.78;;;;;;;2.87;84.53;99535.81;3479819;28;20057;-47
2021/01/02 00:28:06;;;;;;;14.60;6.03;;;;;;;2.86;84.67;99539.19;3479842;28;20060;-47
2021/01/02 00:30:06;;;;;;;13.13;6.30;;;;;;;2.84;84.62;99543.38;3469340;28;20473;-46
2021/01/02 00:32:08;;;;;;;11.75;5.05;;;;;;;2.83;84.90;99548.41;3480740;28;20535;-47
2021/01/02 00:34:20;;;;;;;11.38;5.50;;;;;;;2.83;84.70;99550.97;3478548;28;20399;-48
2021/01/02 00:36:11;;;;;;;9.93;5.05;;;;;;;2.81;84.03;99550.91;3472010;28;20103;-48
2021/01/02 00:38:01;;;;;;;14.20;6.90;;;;;;;2.80;84.13;99555.97;3483106;28;20128;-50
2021/01/02 00:39:55;;;;;;;11.93;5.70;;;;;;;2.79;84.48;99556.78;3479161;28;20053;-47
2021/01/02 00:41:38;;;;;;;;;;;;;;;2.77;84.13;99558.41;3480045;28;21025;-47
2021/01/02 00:43:21;;;;;;;11.95;5.63;;;;;;;2.76;84.16;99559.22;3481410;28;19960;-47
2021/01/02 00:45:04;;;;;;;12.95;6.07;;;;;;;2.74;83.99;99559.16;3480667;28;20079;-47
2021/01/02 00:46:47;;;;;;;12.88;6.20;;;;;;;2.69;84.19;99558.97;3480702;28;20102;-48
2021/01/02 00:48:32;;;;;;;16.35;6.80;;;;;;;2.67;84.50;99563.13;3482676;28;20574;-48
2021/01/02 00:50:14;;;;;;;15.10;6.78;;;;;;;2.64;84.25;99564.66;3480492;28;20090;-47
2021/01/02 00:52:17;;;;;;;16.02;6.80;;;;;;;2.62;84.37;99572.28;3480844;28;20049;-47
2021/01/02 00:54:17;;;;;;;12.80;6.50;;;;;;;2.59;84.56;99571.28;3469021;28;20107;-48
2021/01/02 00:56:26;;;;;;;11.75;5.43;;;;;;;2.57;84.48;99567.78;3479425;28;20080;-48
2021/01/02 00:58:12;;;;;;;14.07;6.20;;;;;;;2.54;84.78;99571.09;3469352;28;20060;-47
2021/01/02 01:00:05;;;;;;;14.18;5.72;;;;;;;2.53;84.72;99576.16;3481155;28;20052;-48
2021/01/02 01:02:01;;;;;;;15.45;6.43;;;;;;;2.52;84.12;99575.28;3481945;28;20147;-48
2021/01/02 01:04:09;;;;;;;15.75;6.65;;;;;;;2.50;84.03;99572.66;3479669;28;20049;-48
2021/01/02 01:05:55;;;;;;;11.40;5.13;;;;;;;2.48;84.08;99579.38;3479356;28;20424;-49
2021/01/02 01:07:37;;;;;;;11.20;5.63;;;;;;;2.47;84.21;99582.75;3482564;28;20053;-47
2021/01/02 01:09:23;;;;;;;10.75;4.95;;;;;;;2.48;84.18;99581.03;3479555;28;20041;-50
2021/01/02 01:11:10;;;;;;;11.70;5.28;;;;;;;2.45;83.80;99583.50;3479361;28;20049;-48
2021/01/02 01:12:59;;;;;;;12.35;5.25;;;;;;;2.45;83.89;99586.06;3482642;28;20060;-48
2021/01/02 01:14:41;;;;;;;11.85;5.43;;;;;;;2.42;83.57;99594.47;3479188;28;20510;-49
2021/01/02 01:16:26;;;;;;;13.20;5.82;;;;;;;2.39;83.78;99583.22;3479235;28;20052;-48
2021/01/02 01:18:43;;;;;;;14.10;6.38;;;;;;;2.40;84.04;99590.09;3468734;28;20061;-49
2021/01/02 01:20:25;;;;;;;13.75;5.72;;;;;;;2.39;83.72;99594.31;3471990;28;20529;-47
2021/01/02 01:22:14;;;;;;;10.45;5.50;;;;;;;2.39;83.72;99594.31;3479559;28;20080;-47
2021/01/02 01:24:09;;;;;;;13.70;6.35;;;;;;;2.39;83.90;99590.88;3482080;28;20052;-47
2021/01/02 01:26:08;;;;;;;14.02;6.78;;;;;;;2.38;83.81;99596.81;3481684;28;20084;-48
2021/01/02 01:27:54;;;;;;;11.35;5.50;;;;;;;2.37;83.61;99598.50;3480247;28;20053;-48
2021/01/02 01:29:57;;;;;;;12.60;5.78;;;;;;;2.37;83.36;99595.94;3480895;28;20501;-48
2021/01/02 01:31:46;;;;;;;9.25;4.47;;;;;;;2.36;83.25;99596.75;3468584;28;20049;-48
2021/01/02 01:33:29;;;;;;;11.52;5.13;;;;;;;2.34;83.16;99603.47;3475799;28;20045;-48
2021/01/02 01:35:13;;;;;;;10.63;5.22;;;;;;;2.35;83.04;99596.69;3481698;28;20098;-48
2021/01/02 01:36:55;;;;;;;11.10;5.18;;;;;;;2.31;82.91;99605.91;3482494;28;20044;-47
2021/01/02 01:38:37;;;;;;;12.85;6.28;;;;;;;2.31;83.04;99608.47;3480110;28;20053;-48
2021/01/02 01:40:24;;;;;;;10.93;5.68;;;;;;;2.29;83.28;99605.84;3479181;28;20109;-49
2021/01/02 01:42:07;;;;;;;13.43;6.22;;;;;;;2.26;83.35;99608.25;3469992;28;23569;-47
2021/01/02 01:44:36;;;;;;;13.10;6.90;;;;;;;2.24;83.52;99614.97;3479000;28;20514;-48
2021/01/02 01:46:17;;;;;;;13.10;5.53;;;;;;;2.22;83.18;99619.16;3478687;28;20049;-47
2021/01/02 01:48:06;;;;;;;9.77;4.78;;;;;;;2.21;83.56;99624.22;3481771;28;20057;-47
2021/01/02 01:50:27;;;;;;;10.93;4.75;;;;;;;2.21;82.92;99624.22;3479944;28;20143;-48
2021/01/02 01:52:13;;;;;;;13.20;5.75;;;;;;;2.17;83.21;99625.75;3479783;28;20053;-49
2021/01/02 01:54:08;;;;;;;9.02;5.15;;;;;;;2.18;82.51;99630.03;3479075;28;20045;-48
2021/01/02 01:56:04;;;;;;;12.75;6.38;;;;;;;2.16;82.63;99623.97;3468442;28;20510;-51
2021/01/02 01:57:49;;;;;;;13.23;5.95;;;;;;;2.13;82.74;99636.66;3478594;28;20319;-46
2021/01/02 02:00:02;;;;;;;11.50;6.25;;;;;;;2.12;82.74;99638.31;3478933;28;20053;-47
2021/01/02 02:01:47;;;;;;;14.15;6.22;;;;;;;2.09;82.65;99635.59;3480577;28;20517;-47
2021/01/02 02:03:35;;;;;;;11.65;5.63;;;;;;;2.07;83.00;99644.91;3481262;28;20513;-46
2021/01/02 02:05:18;;;;;;;12.38;5.20;;;;;;;2.08;82.05;99644.09;3478752;28;20045;-46
2021/01/02 02:07:01;;;;;;;12.30;6.18;;;;;;;2.07;82.23;99650.00;3481540;28;20426;-46
2021/01/02 02:08:45;;;;;;;;;;;;;;;2.03;82.68;99648.13;3481287;28;20067;-46
2021/01/02 02:10:29;;;;;;;11.95;5.35;;;;;;;2.01;82.53;99649.75;3481031;28;20412;-46
2021/01/02 02:12:20;;;;;;;12.45;5.90;;;;;;;2.00;82.52;99655.66;3484647;28;20053;-46
2021/01/02 02:14:10;;;;;;;11.60;5.35;;;;;;;2.00;82.02;99654.78;3482744;28;20076;-46
2021/01/02 02:15:54;;;;;;;13.70;6.22;;;;;;;2.00;81.97;99657.34;3481190;28;20087;-46
2021/01/02 02:17:41;;;;;;;14.38;6.45;;;;;;;2.00;81.97;99663.31;3484633;28;20053;-46
2021/01/02 02:19:46;;;;;;;12.32;5.32;;;;;;;1.97;82.02;99665.75;3470262;28;20526;-47
2021/01/02 02:21:33;;;;;;;13.02;5.78;;;;;;;1.95;82.32;99667.34;3478676;28;20048;-46
2021/01/02 02:23:15;;;;;;;12.15;5.78;;;;;;;1.93;82.14;99671.50;3481350;28;20131;-46
2021/01/02 02:24:56;;;;;;;14.65;7.00;;;;;;;1.90;82.15;99674.81;3484339;28;20068;-46
2021/01/02 02:26:44;;;;;;;13.35;6.43;;;;;;;1.89;81.86;99672.19;3481118;28;20049;-46
2021/01/02 02:29:05;;;;;;;11.25;5.80;;;;;;;1.87;82.16;99668.69;3482762;28;20061;-46
2021/01/02 02:30:55;;;;;;;10.52;5.35;;;;;;;1.86;82.26;99678.00;3470450;28;20435;-46
2021/01/02 02:32:38;;;;;;;13.02;6.50;;;;;;;1.83;82.51;99677.88;3481557;28;20527;-46
2021/01/02 02:34:22;;;;;;;14.50;5.95;;;;;;;1.81;82.59;99682.03;3482395;28;20135;-48
2021/01/02 02:36:04;;;;;;;;;;;;;;;1.80;82.48;99687.94;3484699;28;20087;-48
2021/01/02 02:37:47;;;;;;;16.17;6.22;;;;;;;1.78;82.66;99688.66;3482062;28;19960;-48
2021/01/02 02:39:28;;;;;;;14.05;6.35;;;;;;;1.76;83.02;99688.63;3481149;28;20049;-48
2021/01/02 02:41:10;;;;;;;13.50;5.90;;;;;;;1.73;82.75;99697.00;3483944;28;20540;-48
2021/01/02 02:42:57;;;;;;;14.20;7.40;;;;;;;1.69;82.41;99697.66;3479500;28;20497;-48
2021/01/02 02:44:45;;;;;;;11.07;5.93;;;;;;;1.67;82.64;99691.59;3482777;28;20136;-48
2021/01/02 02:46:29;;;;;;;14.13;6.18;;;;;;;1.65;81.95;99700.84;3483561;28;20057;-48
2021/01/02 02:48:16;;;;;;;10.85;5.18;;;;;;;1.61;82.36;99688.72;3481829;28;20472;-49
2021/01/02 02:49:58;;;;;;;11.75;5.90;;;;;;;1.57;82.30;99694.50;3483379;28;20399;-48
2021/01/02 02:51:47;;;;;;;12.30;6.20;;;;;;;1.55;82.23;99696.09;3481761;28;20053;-48
2021/01/02 02:53:29;;;;;;;13.13;6.60;;;;;;;1.50;82.23;99697.56;3482070;28;20060;-48
2021/01/02 02:55:10;;;;;;;13.70;6.38;;;;;;;1.48;82.24;99694.91;3483829;28;20536;-49
2021/01/02 02:56:53;;;;;;;15.77;7.25;;;;;;;1.46;82.39;99698.19;3480197;28;20056;-48
2021/01/02 02:58:34;;;;;;;12.45;6.22;;;;;;;1.44;82.36;99704.91;3481063;28;20045;-48
2021/01/02 03:00:17;;;;;;;12.20;6.30;;;;;;;1.42;82.42;99709.06;3483963;28;20049;-48
2021/01/02 03:01:59;;;;;;;15.13;6.80;;;;;;;1.40;82.37;99703.88;3481818;28;20045;-48
2021/01/02 03:03:41;;;;;;;14.55;6.78;;;;;;;1.41;82.62;99712.41;3481299;28;20453;-50
2021/01/02 03:05:22;;;;;;;17.23;8.52;;;;;;;1.42;83.11;99719.28;3483352;28;20068;-49
2021/01/02 03:07:05;;;;;;;15.35;8.00;;;;;;;1.40;82.77;99720.88;3481702;28;20056;-48
2021/01/02 03:08:49;;;;;;;10.55;4.90;;;;;;;1.41;82.51;99714.94;3483560;28;20049;-48
2021/01/02 03:10:30;;;;;;;;;;;;;;;1.41;82.82;99715.84;3481499;28;20064;-48
2021/01/02 03:12:11;;;;;;;15.57;7.45;;;;;;;1.42;82.92;99722.69;3480760;28;19960;-49
2021/01/02 03:13:53;;;;;;;16.80;7.28;;;;;;;1.43;83.05;99728.72;3483791;28;20060;-48
2021/01/02 03:15:38;;;;;;;13.13;5.63;;;;;;;1.43;83.21;99728.72;3480446;28;20433;-48
2021/01/02 03:17:21;;;;;;;11.70;5.47;;;;;;;1.44;82.74;99733.00;3480890;28;20056;-48
2021/01/02 03:19:05;;;;;;;12.02;6.03;;;;;;;1.44;83.19;99731.34;3470292;28;20482;-49
2021/01/02 03:20:46;;;;;;;11.82;5.97;;;;;;;1.42;83.44;99727.81;3476688;28;20052;-48
2021/01/02 03:22:28;;;;;;;13.32;6.20;;;;;;;1.43;83.12;99734.69;3482152;28;20398;-48
2021/01/02 03:24:10;;;;;;;14.23;6.70;;;;;;;1.43;83.61;99733.81;3473888;28;20107;-47
2021/01/02 03:25:51;;;;;;;13.88;6.78;;;;;;;1.42;83.43;99732.06;3474403;28;20098;-48
2021/01/02 03:27:33;;;;;;;12.13;6.82;;;;;;;1.40;83.78;99726.00;3483607;28;20087;-49
2021/01/02 03:29:16;;;;;;;13.45;6.65;;;;;;;1.38;83.65;99725.91;3480621;28;20136;-50
2021/01/02 03:30:58;;;;;;;13.75;7.18;;;;;;;1.37;83.57;99726.69;3480677;28;20049;-48
2021/01/02 03:32:41;;;;;;;14.93;6.63;;;;;;;1.34;83.18;99729.13;3483564;28;20635;-48
2021/01/02 03:34:23;;;;;;;11.98;5.80;;;;;;;1.34;83.22;99731.69;3480196;28;20464;-48
2021/01/02 03:36:04;;;;;;;14.13;6.88;;;;;;;1.31;83.09;99739.19;3481808;28;20056;-48
2021/01/02 03:37:48;;;;;;;12.93;5.88;;;;;;;1.30;83.51;99742.53;3483360;28;20510;-48
2021/01/02 03:39:29;;;;;;;11.25;6.22;;;;;;;1.30;83.14;99740.88;3480433;28;20088;-49
2021/01/02 03:41:11;;;;;;;14.98;6.35;;;;;;;1.30;83.23;99739.97;3483018;28;20170;-47
2021/01/02 03:42:52;;;;;;;13.77;6.70;;;;;;;1.29;83.26;99741.66;3480738;28;20084;-46
2021/01/02 03:44:34;;;;;;;14.27;6.90;;;;;;;1.29;83.35;99745.91;3482220;28;20605;-46
2021/01/02 03:46:17;;;;;;;14.35;6.72;;;;;;;1.28;83.36;99739.00;3483222;28;20055;-47
2021/01/02 03:47:59;;;;;;;8.95;4.50;;;;;;;1.28;83.19;99750.13;3480301;28;20048;-48
2021/01/02 03:49:41;;;;;;;10.75;5.85;;;;;;;1.26;83.57;99759.38;3480250;28;20427;-49
2021/01/02 03:51:23;;;;;;;11.63;6.20;;;;;;;1.25;83.49;99751.63;3483483;28;20052;-46
2021/01/02 03:53:05;;;;;;;13.68;6.72;;;;;;;1.23;83.62;99756.69;3480086;28;20049;-46
2021/01/02 03:54:46;;;;;;;13.95;6.95;;;;;;;1.22;83.72;99756.59;3483246;28;20102;-48
2021/01/02 03:56:27;;;;;;;14.57;6.50;;;;;;;1.20;84.03;99766.72;3480778;28;20533;-48
2021/01/02 03:58:09;;;;;;;10.95;5.97;;;;;;;1.20;83.79;99768.41;3480084;28;20053;-49
2021/01/02 03:59:50;;;;;;;11.48;5.93;;;;;;;1.20;83.84;99770.97;3483243;28;20055;-48
2021/01/02 04:01:32;;;;;;;10.15;5.00;;;;;;;1.16;84.29;99770.81;3480005;28;20098;-48
2021/01/02 04:03:14;;;;;;;11.30;6.03;;;;;;;1.17;84.09;99775.09;3478920;28;20166;-47
2021/01/02 04:04:55;;;;;;;12.52;6.00;;;;;;;1.17;84.07;99770.00;3470094;28;20061;-48
2021/01/02 04:06:37;;;;;;;10.43;5.60;;;;;;;1.17;84.30;99774.22;3476498;28;20056;-48
2021/01/02 04:08:20;;;;;;;12.43;6.20;;;;;;;1.16;84.31;99788.69;3481867;28;20102;-46
2021/01/02 04:10:03;;;;;;;14.25;6.53;;;;;;;1.13;84.40;99779.97;3481719;28;20536;-48
2021/01/02 04:11:45;;;;;;;17.35;7.50;;;;;;;1.12;84.65;99784.19;3479962;28;20576;-48
2021/01/02 04:13:26;;;;;;;13.38;6.82;;;;;;;1.11;84.69;99786.69;3483321;28;20064;-48
2021/01/02 04:15:09;;;;;;;12.70;6.72;;;;;;;1.05;85.02;99781.25;3479820;28;20049;-48
2021/01/02 04:16:50;;;;;;;13.23;7.68;;;;;;;1.00;84.97;99786.13;3479999;28;20056;-48
2021/01/02 04:18:33;;;;;;;14.15;6.88;;;;;;;0.96;85.05;99786.75;3483133;28;20049;-49
2021/01/02 04:20:16;;;;;;;;;;;;;;;0.93;85.26;99795.13;3473722;28;20426;-49
2021/01/02 04:21:58;;;;;;;13.95;6.28;;;;;;;0.91;85.40;99801.84;3471488;28;19928;-48
2021/01/02 04:23:39;;;;;;;14.55;7.13;;;;;;;0.88;85.33;99809.31;3483285;28;20534;-49
2021/01/02 04:25:21;;;;;;;13.02;5.93;;;;;;;0.87;85.37;99807.56;3474189;28;20668;-47
2021/01/02 04:27:03;;;;;;;12.68;7.28;;;;;;;0.86;85.90;99810.91;3470880;28;20053;-47
2021/01/02 04:28:45;;;;;;;13.15;6.72;;;;;;;0.85;85.84;99813.38;3483026;28;20449;-47
2021/01/02 04:30:26;;;;;;;13.20;6.82;;;;;;;0.85;85.91;99823.59;3474674;28;20077;-47
2021/01/02 04:32:08;;;;;;;12.50;6.25;;;;;;;0.84;85.83;99825.25;3472110;28;20045;-47
2021/01/02 04:33:50;;;;;;;14.65;6.53;;;;;;;0.85;86.20;99823.59;3482981;28;20052;-48
2021/01/02 04:35:32;;;;;;;15.05;7.05;;;;;;;0.86;86.32;99820.22;3479525;28;20098;-45
2021/01/02 04:37:14;;;;;;;16.02;7.38;;;;;;;0.86;86.41;99822.78;3481871;28;20049;-45
2021/01/02 04:38:55;;;;;;;10.77;5.28;;;;;;;0.88;85.73;99831.44;3481168;28;20052;-45
2021/01/02 04:40:37;;;;;;;10.30;5.60;;;;;;;0.90;85.92;99830.72;3478224;28;20049;-47
2021/01/02 04:42:19;;;;;;;12.80;6.60;;;;;;;0.91;86.22;99841.78;3481439;28;20044;-45
2021/01/02 04:44:03;;;;;;;13.48;6.47;;;;;;;0.91;86.01;99836.69;3479548;28;20130;-47
2021/01/02 04:45:44;;;;;;;12.68;6.20;;;;;;;0.93;85.85;99837.66;3479694;28;20084;-48
2021/01/02 04:47:28;;;;;;;14.52;6.65;;;;;;;0.91;86.17;99832.47;3483260;28;20110;-48
2021/01/02 04:49:10;;;;;;;17.10;6.85;;;;;;;0.91;85.88;99841.78;3479786;28;20049;-49
2021/01/02 04:50:52;;;;;;;12.77;7.05;;;;;;;0.89;86.23;99841.72;3480909;28;20051;-50
2021/01/02 04:52:35;;;;;;;13.07;6.45;;;;;;;0.90;86.25;99848.59;3482504;28;20631;-48
2021/01/02 04:54:21;;;;;;;14.18;7.38;;;;;;;0.89;86.42;99854.47;3480741;28;20048;-47
2021/01/02 04:56:05;;;;;;;12.00;6.40;;;;;;;0.88;86.23;99857.84;3482423;28;20053;-48
2021/01/02 04:57:49;;;;;;;16.10;7.45;;;;;;;0.88;86.61;99859.53;3480471;28;20052;-47
2021/01/02 04:59:34;;;;;;;14.13;6.97;;;;;;;0.87;86.40;99861.19;3480933;28;20056;-45
2021/01/02 05:01:18;;;;;;;14.65;7.05;;;;;;;0.87;86.12;99862.88;3482491;28;20528;-46
2021/01/02 05:03:00;;;;;;;13.90;6.47;;;;;;;0.84;86.16;99860.13;3480169;28;20056;-45
2021/01/02 05:04:46;;;;;;;15.93;7.95;;;;;;;0.83;86.39;99861.81;3479385;28;20041;-46
2021/01/02 05:06:27;;;;;;;14.77;7.15;;;;;;;0.80;86.53;99864.19;3482547;28;20056;-46
2021/01/02 05:08:08;;;;;;;14.18;5.97;;;;;;;0.80;86.23;99871.84;3479126;28;20505;-45
2021/01/02 05:09:50;;;;;;;17.75;7.95;;;;;;;0.78;86.38;99865.78;3480749;28;20053;-45
2021/01/02 05:11:35;;;;;;;16.27;7.43;;;;;;;0.77;86.09;99864.91;3482360;28;20045;-45
2021/01/02 05:13:17;;;;;;;14.48;6.90;;;;;;;0.75;85.63;99865.59;3480274;28;20107;-45
2021/01/02 05:15:05;;;;;;;18.60;7.82;;;;;;;0.72;85.94;99866.31;3482044;28;20110;-46
2021/01/02 05:16:47;;;;;;;17.88;8.60;;;;;;;0.72;86.08;99875.63;3471946;28;20502;-45
2021/01/02 05:18:29;;;;;;;17.17;7.43;;;;;;;0.69;86.29;99872.94;3473953;28;20061;-45
2021/01/02 05:20:14;;;;;;;17.90;8.93;;;;;;;0.66;86.16;99872.75;3482435;28;20056;-46
2021/01/02 05:21:55;;;;;;;16.20;8.70;;;;;;;0.66;85.92;99881.28;3480048;28;20052;-45
2021/01/02 05:23:37;;;;;;;20.60;8.30;;;;;;;0.66;86.09;99888.06;3480624;28;20045;-47
2021/01/02 05:25:21;;;;;;;18.60;8.98;;;;;;;0.64;85.89;99887.97;3482176;28;20059;-46
2021/01/02 05:27:03;;;;;;;16.80;8.73;;;;;;;0.64;86.01;99890.53;3479225;28;20049;-47
2021/01/02 05:28:44;;;;;;;18.67;9.10;;;;;;;0.64;86.26;99892.22;3479332;28;20045;-46
2021/01/02 05:30:28;;;;;;;16.00;8.25;;;;;;;0.63;86.49;99896.44;3482405;28;20091;-48
2021/01/02 05:32:09;;;;;;;22.15;9.27;;;;;;;0.61;86.24;99901.47;3479548;28;20049;-47
2021/01/02 05:34:02;;;;;;;18.48;8.90;;;;;;;0.60;86.39;99904.78;3480788;28;20056;-47
2021/01/02 05:35:46;;;;;;;20.85;9.25;;;;;;;0.60;86.49;99904.78;3481868;28;20079;-49
2021/01/02 05:37:28;;;;;;;17.90;8.70;;;;;;;0.61;86.07;99905.66;3479423;28;20041;-48
2021/01/02 05:39:11;;;;;;;17.67;8.45;;;;;;;0.62;86.10;99915.09;3481985;28;20076;-49
2021/01/02 05:40:55;;;;;;;20.75;9.23;;;;;;;0.63;86.44;99921.06;3479349;28;20056;-49
2021/01/02 05:42:38;;;;;;;16.60;8.32;;;;;;;0.64;86.17;99923.72;3477483;28;20055;-47
2021/01/02 05:44:21;;;;;;;19.92;9.55;;;;;;;0.63;86.45;99926.19;3481844;28;20045;-45
2021/01/02 05:46:05;;;;;;;16.00;8.93;;;;;;;0.63;86.10;99927.09;3479076;28;20098;-48
2021/01/02 05:47:48;;;;;;;16.83;8.27;;;;;;;0.63;86.37;99929.63;3479124;28;20441;-46
2021/01/02 05:49:39;;;;;;;16.25;7.18;;;;;;;0.65;86.03;99924.59;3482141;28;20060;-46
2021/01/02 05:51:27;;;;;;;14.98;7.47;;;;;;;0.64;86.05;99927.97;3479856;28;20056;-46
2021/01/02 05:53:24;;;;;;;19.63;8.98;;;;;;;0.66;86.41;99934.91;3479175;28;20052;-46
2021/01/02 05:55:06;;;;;;;17.67;8.73;;;;;;;0.65;85.99;99940.81;3468677;28;20053;-46
2021/01/02 05:56:48;;;;;;;16.90;8.52;;;;;;;0.65;86.10;99945.91;3477466;28;20064;-47
2021/01/02 05:58:30;;;;;;;14.52;6.07;;;;;;;0.66;86.16;99951.91;3478756;28;20148;-46
2021/01/02 06:00:18;;;;;;;15.75;7.15;;;;;;;0.66;85.87;99952.75;3481885;28;20052;-46
2021/01/02 06:02:18;;;;;;;20.92;9.40;;;;;;;0.66;85.94;99954.44;3479023;28;20044;-46
2021/01/02 06:03:59;;;;;;;18.85;8.73;;;;;;;0.65;86.37;99953.59;3480344;28;20041;-46
2021/01/02 06:05:54;;;;;;;19.52;8.52;;;;;;;0.65;86.08;99957.78;3482316;28;20045;-47
2021/01/02 06:07:38;;;;;;;17.33;8.65;;;;;;;0.64;86.46;99961.16;3480270;28;20053;-46
2021/01/02 06:09:20;;;;;;;17.52;8.27;;;;;;;0.64;86.10;99968.81;3479041;28;20049;-46
2021/01/02 06:11:05;;;;;;;16.05;8.00;;;;;;;0.65;86.30;99975.66;3481846;28;20056;-46
2021/01/02 06:12:46;;;;;;;;;;;;;;;0.66;86.13;99974.88;3479396;28;20505;-48
2021/01/02 06:14:31;;;;;;;16.25;7.53;;;;;;;0.66;86.14;99977.44;3480796;28;20400;-46
2021/01/02 06:16:13;;;;;;;15.23;8.20;;;;;;;0.66;86.05;99977.44;3481109;28;20106;-46
2021/01/02 06:18:04;;;;;;;16.13;8.15;;;;;;;0.66;86.20;99973.19;3478852;28;20037;-46
2021/01/02 06:19:46;;;;;;;18.08;9.07;;;;;;;0.66;86.25;99975.75;3481547;28;20402;-46
2021/01/02 06:21:30;;;;;;;22.95;10.23;;;;;;;0.66;86.32;99978.28;3479857;28;20056;-45
2021/01/02 06:23:16;;;;;;;16.13;7.90;;;;;;;0.66;86.40;99985.09;3480043;28;20045;-46
2021/01/02 06:24:59;;;;;;;16.48;8.93;;;;;;;0.67;86.44;99979.19;3481982;28;20643;-46
2021/01/02 06:26:42;;;;;;;20.88;9.40;;;;;;;0.69;86.75;99985.28;3477829;28;20536;-46
2021/01/02 06:28:27;;;;;;;21.13;9.15;;;;;;;0.69;86.75;99985.28;3479554;28;20053;-46
2021/01/02 06:30:14;;;;;;;19.65;9.05;;;;;;;0.71;86.79;99986.22;3481785;28;20060;-46
2021/01/02 06:31:56;;;;;;;17.38;8.65;;;;;;;0.71;87.10;99987.09;3478567;28;20071;-46
2021/01/02 06:33:44;;;;;;;15.23;7.05;;;;;;;0.72;86.87;99990.53;3479904;28;20057;-46
2021/01/02 06:35:27;;;;;;;14.55;7.97;;;;;;;0.75;86.63;99998.38;3468217;28;20060;-46
2021/01/02 06:37:08;;;;;;;18.23;8.68;;;;;;;0.75;86.65;99991.63;3475720;28;20052;-48
2021/01/02 06:39:18;;;;;;;19.60;9.00;;;;;;;0.78;86.82;100001.13;3479908;28;20094;-48
2021/01/02 06:41:00;;;;;;;14.93;7.70;;;;;;;0.78;86.88;99996.88;3482017;28;20505;-47
2021/01/02 06:42:51;;;;;;;19.73;9.02;;;;;;;0.79;86.81;99996.09;3478041;28;20560;-46
2021/01/02 06:44:41;;;;;;;17.40;7.93;;;;;;;0.82;86.72;100002.16;3479988;28;20413;-49
2021/01/02 06:46:33;;;;;;;23.70;10.00;;;;;;;0.83;87.08;100004.81;3481726;28;20055;-48
2021/01/02 06:48:42;;;;;;;19.90;9.15;;;;;;;0.84;86.70;100004.00;3478378;28;20049;-48
2021/01/02 06:50:23;;;;;;;16.50;8.40;;;;;;;0.86;86.71;100005.00;3456447;28;20041;-51
2021/01/02 06:52:05;;;;;;;20.65;10.35;;;;;;;0.85;86.84;99999.81;3468471;28;20072;-48
2021/01/02 06:53:46;;;;;;;20.67;9.68;;;;;;;0.88;86.74;100007.66;3481113;28;20060;-49
2021/01/02 06:55:28;;;;;;;21.35;9.90;;;;;;;0.89;87.06;100015.38;3479088;28;20084;-48
2021/01/02 06:57:10;;;;;;;19.73;8.50;;;;;;;0.91;87.23;100025.69;3483878;28;20053;-46
2021/01/02 06:58:51;;;;;;;23.23;10.75;;;;;;;0.91;86.82;100023.13;3481731;28;20088;-45
2021/01/02 07:00:36;;;;;;;20.85;9.38;;;;;;;0.93;86.74;100026.63;3480599;28;20049;-46
2021/01/02 07:02:31;;;;;;;20.20;9.18;;;;;;;0.96;86.80;100031.94;3484343;28;20057;-46
2021/01/02 07:04:13;;;;;;;23.60;10.27;;;;;;;0.98;86.96;100031.25;3480952;28;20552;-48
2021/01/02 07:05:55;;;;;;;20.92;9.88;;;;;;;1.01;86.59;100027.97;3480591;28;20046;-49
2021/01/02 07:07:40;;;;;;;13.13;6.90;;;;;;;1.03;86.56;100031.50;3484105;28;20195;-49
2021/01/02 07:09:26;;;;;;;23.90;10.93;;;;;;;1.05;86.93;100027.34;3480930;28;20203;-46
2021/01/02 07:11:23;;;;;;;39.97;16.55;;;;;;;1.09;87.02;100031.84;3480764;28;20323;-48
2021/01/02 07:13:08;;;;;;;69.55;24.35;;;;;;;1.11;86.97;100042.16;3470382;28;20053;-49
2021/01/02 07:14:50;;;;;;;96.32;36.58;;;;;;;1.13;86.87;100041.44;3477896;28;20056;-46
2021/01/02 07:16:31;;;;;;;55.83;20.38;;;;;;;1.14;86.62;100048.34;3481874;28;20072;-47
2021/01/02 07:18:30;;;;;;;65.35;22.80;;;;;;;1.16;86.42;100043.31;3483832;28;20053;-49
2021/01/02 07:20:26;;;;;;;168.88;52.28;;;;;;;1.17;86.64;100045.94;3480874;28;20071;-46
2021/01/02 07:22:11;;;;;;;112.32;32.47;;;;;;;1.21;86.40;100053.78;3480721;28;20084;-49
2021/01/02 07:23:53;;;;;;;76.47;25.20;;;;;;;1.22;86.46;100051.31;3483413;28;20159;-49
2021/01/02 07:25:34;;;;;;;58.22;19.63;;;;;;;1.24;86.22;100053.97;3481466;28;20087;-49
2021/01/02 07:27:18;;;;;;;84.60;27.40;;;;;;;1.25;85.96;100045.47;3481602;28;20052;-49
2021/01/02 07:28:59;;;;;;;71.38;26.08;;;;;;;1.27;86.11;100046.47;3483565;28;20068;-49
2021/01/02 07:30:41;;;;;;;62.58;21.42;;;;;;;1.29;86.20;100047.44;3480322;28;20510;-49
2021/01/02 07:32:28;;;;;;;50.45;18.83;;;;;;;1.31;86.07;100053.50;3483262;28;20102;-48
2021/01/02 07:34:16;;;;;;;44.80;18.48;;;;;;;1.33;86.68;100057.03;3481840;28;20040;-48
2021/01/02 07:35:58;;;;;;;71.03;27.27;;;;;;;1.35;86.62;100066.56;3474317;28;20449;-49
2021/01/02 07:37:41;;;;;;;33.80;14.35;;;;;;;1.38;86.20;100061.59;3470614;28;20049;-48
2021/01/02 07:39:23;;;;;;;28.42;12.50;;;;;;;1.42;85.99;100065.22;3482636;28;20063;-48
2021/01/02 07:41:05;;;;;;;23.23;11.50;;;;;;;1.45;86.06;100072.19;3481654;28;20053;-48
2021/01/02 07:42:50;;;;;;;26.08;11.68;;;;;;;1.46;86.46;100074.84;3481759;28;20444;-46
2021/01/02 07:44:31;;;;;;;23.25;11.30;;;;;;;1.49;86.17;100067.31;3480703;28;20076;-45
2021/01/02 07:46:13;;;;;;;25.58;12.77;;;;;;;1.53;86.07;100076.94;3480187;28;20046;-45
2021/01/02 07:47:56;;;;;;;30.55;13.65;;;;;;;1.57;86.39;100085.66;3483846;28;20072;-45
2021/01/02 07:49:38;;;;;;;28.98;13.43;;;;;;;1.61;86.35;100081.59;3480333;28;20077;-46
2021/01/02 07:51:20;;;;;;;24.42;10.35;;;;;;;1.64;85.88;100079.22;3482969;28;20052;-45
2021/01/02 07:53:02;;;;;;;22.85;9.18;;;;;;;1.66;85.60;100093.84;3483552;28;20518;-46
2021/01/02 07:54:44;;;;;;;21.63;10.20;;;;;;;1.67;85.53;100089.59;3482897;28;20175;-45
2021/01/02 07:56:35;;;;;;;19.08;9.70;;;;;;;1.69;85.56;100090.56;3480169;28;20045;-47
2021/01/02 07:58:26;;;;;;;22.27;10.02;;;;;;;1.70;85.76;100092.34;3483625;28;20506;-48
2021/01/02 08:00:10;;;;;;;21.50;10.40;;;;;;;1.71;85.42;100097.53;3480725;28;20063;-48
2021/01/02 08:01:52;;;;;;;19.60;9.10;;;;;;;1.74;85.58;100102.84;3480046;28;20056;-48
2021/01/02 08:03:35;;;;;;;20.90;9.02;;;;;;;1.78;85.32;100105.53;3483236;28;20045;-47
2021/01/02 08:05:18;;;;;;;22.48;11.20;;;;;;;1.80;85.21;100096.31;3477676;28;20136;-48
2021/01/02 08:07:01;;;;;;;32.10;14.27;;;;;;;1.82;85.54;100097.25;3479646;28;20103;-48
2021/01/02 08:08:57;;;;;;;76.13;28.38;;;;;;;1.85;85.31;100102.56;3483815;28;20056;-46
2021/01/02 08:10:42;;;;;;;56.97;18.02;;;;;;;1.87;85.16;100101.81;3479715;28;20055;-49
2021/01/02 08:12:23;;;;;;;34.60;14.07;;;;;;;1.88;84.80;100101.03;3480354;28;20049;-48
2021/01/02 08:14:06;;;;;;;54.78;19.80;;;;;;;1.91;85.17;100097.75;3483280;28;20057;-49
2021/01/02 08:15:52;;;;;;;27.98;11.75;;;;;;;1.93;85.16;100107.25;3479932;28;20541;-48
2021/01/02 08:17:43;;;;;;;25.05;11.20;;;;;;;1.96;84.91;100119.38;3480104;28;20053;-48
2021/01/02 08:19:24;;;;;;;16.17;8.43;;;;;;;2.00;84.61;100113.59;3469510;28;20498;-48